JZR311 OKKK-LTCG
Flight info
| Callsign | JZR311 |
|---|---|
| Flight time | 2h 12m |
| Altitude | 36000 |
| Route | TASMI L602 GADSI M860 NINVA UM860 RENGI DCT SONAD UT166 PIXAP |
| Aircraft | A320/M-SDE3FGHIRWY/LB1 |
Departure
| Time | 2026-05-08 10:24 |
|---|---|
| Airport | Kuwait International Airport (OKKK) |
Arrival
| Time | 2026-05-08 12:36 |
|---|---|
| Airport | Trabzon International Airport (LTCG) |
| Time | Latitude | Longitude | Altitude | Speed | Heading |
|---|---|---|---|---|---|
| 2026-05-08 09:37 | 29.24060 | 47.97330 | 167 ft | 0 kts | 334° |
| 2026-05-08 09:40 | 29.23657 | 47.96914 | 167 ft | 0 kts | 154° |
| 2026-05-08 10:13 | 29.23672 | 47.96904 | 167 ft | 4 kts | 141° |
| 2026-05-08 10:13 | 29.23689 | 47.96890 | 167 ft | 4 kts | 147° |
| 2026-05-08 10:13 | 29.23712 | 47.96873 | 167 ft | 4 kts | 151° |
| 2026-05-08 10:13 | 29.23737 | 47.96861 | 167 ft | 4 kts | 170° |
| 2026-05-08 10:14 | 29.23754 | 47.96860 | 167 ft | 1 kts | 191° |
| 2026-05-08 10:14 | 29.23757 | 47.96861 | 167 ft | 0 kts | 191° |
| 2026-05-08 10:16 | 29.23756 | 47.96861 | 167 ft | 1 kts | 191° |
| 2026-05-08 10:16 | 29.23736 | 47.96852 | 167 ft | 7 kts | 210° |
| 2026-05-08 10:17 | 29.23700 | 47.96803 | 167 ft | 9 kts | 241° |
| 2026-05-08 10:17 | 29.23674 | 47.96730 | 167 ft | 11 kts | 248° |
| 2026-05-08 10:17 | 29.23654 | 47.96676 | 168 ft | 1 kts | 245° |
| 2026-05-08 10:17 | 29.23648 | 47.96664 | 168 ft | 3 kts | 234° |
| 2026-05-08 10:18 | 29.23614 | 47.96646 | 170 ft | 9 kts | 184° |
| 2026-05-08 10:18 | 29.23530 | 47.96676 | 174 ft | 18 kts | 155° |
| 2026-05-08 10:18 | 29.23394 | 47.96750 | 178 ft | 24 kts | 154° |
| 2026-05-08 10:18 | 29.23237 | 47.96832 | 177 ft | 26 kts | 155° |
| 2026-05-08 10:19 | 29.23082 | 47.96916 | 172 ft | 25 kts | 154° |
| 2026-05-08 10:19 | 29.22919 | 47.97001 | 170 ft | 22 kts | 157° |
| 2026-05-08 10:19 | 29.22775 | 47.97073 | 169 ft | 23 kts | 154° |
| 2026-05-08 10:20 | 29.22468 | 47.97239 | 169 ft | 25 kts | 155° |
| 2026-05-08 10:20 | 29.22304 | 47.97326 | 169 ft | 27 kts | 156° |
| 2026-05-08 10:20 | 29.22126 | 47.97421 | 168 ft | 29 kts | 155° |
| 2026-05-08 10:20 | 29.21945 | 47.97517 | 168 ft | 29 kts | 154° |
| 2026-05-08 10:21 | 29.21766 | 47.97613 | 168 ft | 29 kts | 155° |
| 2026-05-08 10:21 | 29.21583 | 47.97712 | 170 ft | 29 kts | 155° |
| 2026-05-08 10:21 | 29.21401 | 47.97808 | 171 ft | 28 kts | 154° |
| 2026-05-08 10:21 | 29.21274 | 47.97842 | 171 ft | 14 kts | 225° |
| 2026-05-08 10:22 | 29.21248 | 47.97740 | 173 ft | 13 kts | 291° |
| 2026-05-08 10:22 | 29.21296 | 47.97656 | 180 ft | 10 kts | 300° |
| 2026-05-08 10:22 | 29.21341 | 47.97593 | 182 ft | 10 kts | 334° |
| 2026-05-08 10:22 | 29.21349 | 47.97588 | 181 ft | 0 kts | 334° |
| 2026-05-08 10:23 | 29.21455 | 47.97531 | 181 ft | 49 kts | 335° |
| 2026-05-08 10:23 | 29.21977 | 47.97254 | 183 ft | 112 kts | 335° |
| 2026-05-08 10:23 | 29.22836 | 47.96795 | 191 ft | 161 kts | 335° |
| 2026-05-08 10:23 | 29.23928 | 47.96251 | 624 ft | 172 kts | 333° |
| 2026-05-08 10:24 | 29.25027 | 47.95684 | 1292 ft | 174 kts | 335° |
| 2026-05-08 10:24 | 29.26112 | 47.95082 | 1889 ft | 173 kts | 334° |
| 2026-05-08 10:24 | 29.27207 | 47.94451 | 2357 ft | 179 kts | 334° |
| 2026-05-08 10:24 | 29.28470 | 47.94080 | 2582 ft | 201 kts | 4° |
| 2026-05-08 10:25 | 29.29881 | 47.94550 | 2829 ft | 223 kts | 21° |
| 2026-05-08 10:25 | 29.31364 | 47.95315 | 3160 ft | 245 kts | 24° |
| 2026-05-08 10:25 | 29.32964 | 47.96162 | 3665 ft | 259 kts | 24° |
| 2026-05-08 10:25 | 29.34620 | 47.97035 | 4399 ft | 265 kts | 23° |
| 2026-05-08 10:26 | 29.36302 | 47.97942 | 5170 ft | 268 kts | 23° |
| 2026-05-08 10:26 | 29.38001 | 47.98900 | 5872 ft | 276 kts | 23° |
| 2026-05-08 10:26 | 29.39723 | 47.99893 | 6516 ft | 284 kts | 24° |
| 2026-05-08 10:26 | 29.41509 | 48.00926 | 7192 ft | 290 kts | 24° |
| 2026-05-08 10:27 | 29.43335 | 48.01984 | 7937 ft | 295 kts | 24° |
| 2026-05-08 10:27 | 29.45186 | 48.03069 | 8695 ft | 300 kts | 24° |
| 2026-05-08 10:27 | 29.47059 | 48.04172 | 9423 ft | 305 kts | 24° |
| 2026-05-08 10:27 | 29.48970 | 48.05295 | 10141 ft | 313 kts | 24° |
| 2026-05-08 10:28 | 29.50962 | 48.06453 | 10345 ft | 336 kts | 24° |
| 2026-05-08 10:28 | 29.53116 | 48.07697 | 10672 ft | 352 kts | 24° |
| 2026-05-08 10:28 | 29.55326 | 48.08966 | 11245 ft | 358 kts | 24° |
| 2026-05-08 10:28 | 29.57625 | 48.10083 | 11897 ft | 359 kts | 12° |
| 2026-05-08 10:29 | 29.60096 | 48.10386 | 12554 ft | 357 kts | 353° |
| 2026-05-08 10:29 | 29.62502 | 48.09764 | 13202 ft | 355 kts | 336° |
| 2026-05-08 10:29 | 29.64822 | 48.08731 | 13844 ft | 358 kts | 335° |
| 2026-05-08 10:29 | 29.67121 | 48.07690 | 14420 ft | 361 kts | 335° |
| 2026-05-08 10:30 | 29.69471 | 48.06620 | 14817 ft | 363 kts | 335° |
| 2026-05-08 10:30 | 29.71835 | 48.05546 | 15300 ft | 366 kts | 335° |
| 2026-05-08 10:30 | 29.74215 | 48.04471 | 15933 ft | 368 kts | 335° |
| 2026-05-08 10:30 | 29.76615 | 48.03388 | 16549 ft | 371 kts | 335° |
| 2026-05-08 10:31 | 29.79027 | 48.02299 | 17174 ft | 373 kts | 335° |
| 2026-05-08 10:31 | 29.81455 | 48.01202 | 17782 ft | 376 kts | 334° |
| 2026-05-08 10:31 | 29.83905 | 48.00095 | 18359 ft | 379 kts | 334° |
| 2026-05-08 10:31 | 29.86336 | 47.98998 | 18848 ft | 382 kts | 334° |
| 2026-05-08 10:32 | 29.88825 | 47.97874 | 19325 ft | 386 kts | 334° |
| 2026-05-08 10:32 | 29.91355 | 47.96729 | 19787 ft | 391 kts | 333° |
| 2026-05-08 10:32 | 29.93903 | 47.95577 | 20276 ft | 395 kts | 333° |
| 2026-05-08 10:32 | 29.96477 | 47.94412 | 20748 ft | 399 kts | 333° |
| 2026-05-08 10:33 | 29.99069 | 47.93227 | 21233 ft | 401 kts | 330° |
| 2026-05-08 10:33 | 30.01514 | 47.91710 | 21691 ft | 398 kts | 320° |
| 2026-05-08 10:33 | 30.03674 | 47.89743 | 22159 ft | 394 kts | 310° |
| 2026-05-08 10:33 | 30.05527 | 47.87420 | 22663 ft | 392 kts | 304° |
| 2026-05-08 10:34 | 30.07311 | 47.85027 | 23182 ft | 394 kts | 304° |
| 2026-05-08 10:34 | 30.09110 | 47.82621 | 23639 ft | 397 kts | 304° |
| 2026-05-08 10:34 | 30.10922 | 47.80205 | 24052 ft | 400 kts | 304° |
| 2026-05-08 10:34 | 30.12728 | 47.77802 | 24419 ft | 403 kts | 303° |
| 2026-05-08 10:35 | 30.14570 | 47.75347 | 24776 ft | 406 kts | 303° |
| 2026-05-08 10:35 | 30.16427 | 47.72867 | 25130 ft | 409 kts | 303° |
| 2026-05-08 10:35 | 30.18298 | 47.70364 | 25495 ft | 412 kts | 303° |
| 2026-05-08 10:35 | 30.20175 | 47.67855 | 25841 ft | 414 kts | 303° |
| 2026-05-08 10:36 | 30.22065 | 47.65328 | 26184 ft | 417 kts | 302° |
| 2026-05-08 10:36 | 30.23975 | 47.62771 | 26522 ft | 420 kts | 302° |
| 2026-05-08 10:36 | 30.25888 | 47.60204 | 26834 ft | 422 kts | 302° |
| 2026-05-08 10:36 | 30.27789 | 47.57650 | 27157 ft | 425 kts | 302° |
| 2026-05-08 10:37 | 30.29725 | 47.55043 | 27474 ft | 428 kts | 301° |
| 2026-05-08 10:37 | 30.31675 | 47.52418 | 27781 ft | 431 kts | 301° |
| 2026-05-08 10:37 | 30.33641 | 47.49769 | 28105 ft | 433 kts | 301° |
| 2026-05-08 10:37 | 30.35623 | 47.47101 | 28394 ft | 436 kts | 301° |
| 2026-05-08 10:38 | 30.37588 | 47.44455 | 28691 ft | 439 kts | 301° |
| 2026-05-08 10:38 | 30.39586 | 47.41765 | 28975 ft | 442 kts | 301° |
| 2026-05-08 10:38 | 30.41613 | 47.39042 | 29242 ft | 445 kts | 301° |
| 2026-05-08 10:38 | 30.43644 | 47.36312 | 29519 ft | 447 kts | 301° |
| 2026-05-08 10:39 | 30.45680 | 47.33568 | 29786 ft | 450 kts | 300° |
| 2026-05-08 10:39 | 30.47700 | 47.30839 | 30060 ft | 452 kts | 300° |
| 2026-05-08 10:39 | 30.49757 | 47.28058 | 30302 ft | 454 kts | 300° |
| 2026-05-08 10:39 | 30.51814 | 47.25277 | 30549 ft | 454 kts | 300° |
| 2026-05-08 10:40 | 30.53873 | 47.22490 | 30806 ft | 455 kts | 300° |
| 2026-05-08 10:40 | 30.55949 | 47.19709 | 31061 ft | 458 kts | 302° |
| 2026-05-08 10:40 | 30.58291 | 47.17185 | 31413 ft | 469 kts | 310° |
| 2026-05-08 10:40 | 30.60842 | 47.14813 | 31776 ft | 467 kts | 310° |
| 2026-05-08 10:41 | 30.63380 | 47.12464 | 32139 ft | 464 kts | 310° |
| 2026-05-08 10:41 | 30.65905 | 47.10127 | 32493 ft | 462 kts | 309° |
| 2026-05-08 10:41 | 30.68415 | 47.07793 | 32836 ft | 460 kts | 309° |
| 2026-05-08 10:41 | 30.70906 | 47.05466 | 33176 ft | 458 kts | 309° |
| 2026-05-08 10:42 | 30.73385 | 47.03146 | 33529 ft | 456 kts | 308° |
| 2026-05-08 10:42 | 30.75817 | 47.00864 | 33894 ft | 454 kts | 308° |
| 2026-05-08 10:42 | 30.78273 | 46.98559 | 34177 ft | 453 kts | 308° |
| 2026-05-08 10:42 | 30.80726 | 46.96257 | 34433 ft | 452 kts | 308° |
| 2026-05-08 10:43 | 30.83179 | 46.93954 | 34644 ft | 452 kts | 308° |
| 2026-05-08 10:43 | 30.85633 | 46.91653 | 34862 ft | 452 kts | 308° |
| 2026-05-08 10:43 | 30.87256 | 46.90130 | 35015 ft | 452 kts | 308° |
| 2026-05-08 10:43 | 30.89702 | 46.87831 | 35237 ft | 451 kts | 308° |
| 2026-05-08 10:44 | 30.92145 | 46.85532 | 35460 ft | 451 kts | 308° |
| 2026-05-08 10:44 | 30.95377 | 46.82487 | 35706 ft | 451 kts | 307° |
| 2026-05-08 10:44 | 30.97032 | 46.80929 | 35827 ft | 451 kts | 307° |
| 2026-05-08 10:44 | 30.99477 | 46.78625 | 35955 ft | 450 kts | 307° |
| 2026-05-08 10:45 | 31.01880 | 46.76364 | 35977 ft | 448 kts | 307° |
| 2026-05-08 10:45 | 31.06715 | 46.71806 | 35987 ft | 446 kts | 307° |
| 2026-05-08 10:46 | 31.11552 | 46.67225 | 35988 ft | 446 kts | 307° |
| 2026-05-08 10:46 | 31.16354 | 46.62683 | 35984 ft | 447 kts | 307° |
| 2026-05-08 10:47 | 31.21187 | 46.58106 | 36005 ft | 446 kts | 307° |
| 2026-05-08 10:47 | 31.26013 | 46.53528 | 36023 ft | 446 kts | 308° |
| 2026-05-08 10:48 | 31.30809 | 46.48972 | 36007 ft | 446 kts | 308° |
| 2026-05-08 10:48 | 31.35615 | 46.44394 | 36026 ft | 445 kts | 308° |
| 2026-05-08 10:49 | 31.40421 | 46.39806 | 36022 ft | 445 kts | 308° |
| 2026-05-08 10:49 | 31.45223 | 46.35224 | 36023 ft | 445 kts | 308° |
| 2026-05-08 10:50 | 31.50032 | 46.30635 | 36039 ft | 445 kts | 308° |
| 2026-05-08 10:50 | 31.54810 | 46.26069 | 36039 ft | 445 kts | 308° |
| 2026-05-08 10:51 | 31.59606 | 46.21470 | 36040 ft | 445 kts | 308° |
| 2026-05-08 10:51 | 31.64406 | 46.16861 | 36073 ft | 445 kts | 308° |
| 2026-05-08 10:52 | 31.69172 | 46.12274 | 36064 ft | 445 kts | 308° |
| 2026-05-08 10:52 | 31.73969 | 46.07654 | 36060 ft | 445 kts | 308° |
| 2026-05-08 10:53 | 31.78737 | 46.03023 | 36068 ft | 444 kts | 308° |
| 2026-05-08 10:53 | 31.83455 | 45.98335 | 36059 ft | 443 kts | 307° |
| 2026-05-08 10:54 | 31.88128 | 45.93665 | 36054 ft | 443 kts | 308° |
| 2026-05-08 10:54 | 31.92847 | 45.88955 | 36052 ft | 445 kts | 307° |
| 2026-05-08 10:55 | 31.97600 | 45.84234 | 36035 ft | 447 kts | 307° |
| 2026-05-08 10:55 | 32.02329 | 45.79532 | 36033 ft | 448 kts | 307° |
| 2026-05-08 10:56 | 32.07100 | 45.74772 | 36049 ft | 449 kts | 308° |
| 2026-05-08 10:56 | 32.11877 | 45.70002 | 36041 ft | 450 kts | 308° |
| 2026-05-08 10:57 | 32.16625 | 45.65252 | 36040 ft | 450 kts | 308° |
| 2026-05-08 10:57 | 32.23791 | 45.58057 | 36062 ft | 451 kts | 308° |
| 2026-05-08 10:58 | 32.28578 | 45.53247 | 36062 ft | 451 kts | 308° |
| 2026-05-08 10:58 | 32.33362 | 45.48441 | 36081 ft | 451 kts | 308° |
| 2026-05-08 10:59 | 32.38121 | 45.43650 | 36077 ft | 451 kts | 308° |
| 2026-05-08 10:59 | 32.42899 | 45.38828 | 36076 ft | 451 kts | 308° |
| 2026-05-08 11:00 | 32.47694 | 45.33990 | 36090 ft | 452 kts | 309° |
| 2026-05-08 11:00 | 32.52477 | 45.29154 | 36090 ft | 451 kts | 309° |
| 2026-05-08 11:01 | 32.57462 | 45.24600 | 36087 ft | 461 kts | 316° |
| 2026-05-08 11:01 | 32.62806 | 45.20366 | 36102 ft | 461 kts | 316° |
| 2026-05-08 11:02 | 32.70786 | 45.14051 | 36092 ft | 460 kts | 316° |
| 2026-05-08 11:03 | 32.76101 | 45.09822 | 36117 ft | 459 kts | 317° |
| 2026-05-08 11:03 | 32.81405 | 45.05603 | 36106 ft | 458 kts | 317° |
| 2026-05-08 11:04 | 32.86704 | 45.01375 | 36118 ft | 457 kts | 317° |
| 2026-05-08 11:04 | 32.91966 | 44.97168 | 36078 ft | 452 kts | 318° |
| 2026-05-08 11:05 | 32.97150 | 44.93031 | 36078 ft | 450 kts | 318° |
| 2026-05-08 11:05 | 33.02353 | 44.88864 | 36078 ft | 449 kts | 318° |
| 2026-05-08 11:06 | 33.07542 | 44.84692 | 36079 ft | 449 kts | 318° |
| 2026-05-08 11:06 | 33.12702 | 44.80551 | 36076 ft | 449 kts | 318° |
| 2026-05-08 11:07 | 33.17918 | 44.76405 | 36083 ft | 452 kts | 322° |
| 2026-05-08 11:07 | 33.23890 | 44.73629 | 36079 ft | 470 kts | 342° |
| 2026-05-08 11:07 | 33.27174 | 44.73156 | 36082 ft | 478 kts | 353° |
| 2026-05-08 11:08 | 33.30510 | 44.73057 | 36076 ft | 479 kts | 353° |
| 2026-05-08 11:08 | 33.37144 | 44.72865 | 36075 ft | 479 kts | 353° |
| 2026-05-08 11:09 | 33.43819 | 44.72662 | 36069 ft | 480 kts | 353° |
| 2026-05-08 11:09 | 33.50502 | 44.72441 | 36069 ft | 480 kts | 353° |
| 2026-05-08 11:10 | 33.57179 | 44.72223 | 36090 ft | 480 kts | 353° |
| 2026-05-08 11:10 | 33.63825 | 44.72011 | 36083 ft | 479 kts | 353° |
| 2026-05-08 11:11 | 33.70494 | 44.71806 | 36080 ft | 479 kts | 353° |
| 2026-05-08 11:11 | 33.77168 | 44.71597 | 36096 ft | 479 kts | 352° |
| 2026-05-08 11:12 | 33.83833 | 44.71387 | 36084 ft | 478 kts | 352° |
| 2026-05-08 11:12 | 33.90453 | 44.71174 | 36079 ft | 478 kts | 352° |
| 2026-05-08 11:13 | 33.97110 | 44.70962 | 36087 ft | 478 kts | 352° |
| 2026-05-08 11:13 | 34.03766 | 44.70751 | 36084 ft | 477 kts | 352° |
| 2026-05-08 11:14 | 34.10410 | 44.70543 | 36072 ft | 477 kts | 352° |
| 2026-05-08 11:14 | 34.17045 | 44.70329 | 36088 ft | 476 kts | 352° |
| 2026-05-08 11:15 | 34.23631 | 44.70119 | 36077 ft | 476 kts | 352° |
| 2026-05-08 11:15 | 34.30255 | 44.69909 | 36074 ft | 475 kts | 352° |
| 2026-05-08 11:16 | 34.36873 | 44.69701 | 36081 ft | 475 kts | 352° |
| 2026-05-08 11:16 | 34.43446 | 44.69493 | 36076 ft | 474 kts | 352° |
| 2026-05-08 11:17 | 34.50007 | 44.69000 | 36089 ft | 466 kts | 342° |
| 2026-05-08 11:17 | 34.56069 | 44.66705 | 36081 ft | 452 kts | 330° |
| 2026-05-08 11:18 | 34.61922 | 44.63872 | 36072 ft | 452 kts | 330° |
| 2026-05-08 11:18 | 34.67757 | 44.61070 | 36085 ft | 452 kts | 331° |
| 2026-05-08 11:19 | 34.73611 | 44.58253 | 36099 ft | 451 kts | 331° |
| 2026-05-08 11:19 | 34.79403 | 44.55464 | 36066 ft | 449 kts | 331° |
| 2026-05-08 11:20 | 34.85218 | 44.52653 | 36052 ft | 448 kts | 331° |
| 2026-05-08 11:20 | 34.91026 | 44.49844 | 36049 ft | 448 kts | 331° |
| 2026-05-08 11:21 | 34.96788 | 44.47049 | 36061 ft | 448 kts | 331° |
| 2026-05-08 11:21 | 35.02589 | 44.44231 | 36049 ft | 448 kts | 331° |
| 2026-05-08 11:22 | 35.08385 | 44.41416 | 36071 ft | 448 kts | 331° |
| 2026-05-08 11:22 | 35.14147 | 44.38608 | 36059 ft | 448 kts | 331° |
| 2026-05-08 11:23 | 35.19946 | 44.35779 | 36052 ft | 448 kts | 331° |
| 2026-05-08 11:23 | 35.25749 | 44.32931 | 36062 ft | 448 kts | 331° |
| 2026-05-08 11:24 | 35.31509 | 44.30093 | 36059 ft | 447 kts | 330° |
| 2026-05-08 11:24 | 35.37254 | 44.27136 | 36053 ft | 446 kts | 329° |
| 2026-05-08 11:25 | 35.42943 | 44.24173 | 36046 ft | 446 kts | 330° |
| 2026-05-08 11:25 | 35.48646 | 44.21223 | 36059 ft | 446 kts | 330° |
| 2026-05-08 11:26 | 35.54369 | 44.18273 | 36060 ft | 445 kts | 330° |
| 2026-05-08 11:26 | 35.60086 | 44.15321 | 36050 ft | 444 kts | 330° |
| 2026-05-08 11:27 | 35.65751 | 44.12379 | 36050 ft | 444 kts | 330° |
| 2026-05-08 11:27 | 35.71458 | 44.09410 | 36066 ft | 443 kts | 330° |
| 2026-05-08 11:28 | 35.77114 | 44.06485 | 36077 ft | 442 kts | 330° |
| 2026-05-08 11:28 | 35.82792 | 44.03537 | 36070 ft | 441 kts | 330° |
| 2026-05-08 11:29 | 35.88420 | 44.00601 | 36070 ft | 440 kts | 330° |
| 2026-05-08 11:29 | 35.93119 | 43.98148 | 36087 ft | 440 kts | 330° |
| 2026-05-08 11:30 | 35.98772 | 43.95189 | 36086 ft | 440 kts | 330° |
| 2026-05-08 11:30 | 36.04426 | 43.92229 | 36104 ft | 440 kts | 330° |
| 2026-05-08 11:31 | 36.10043 | 43.89286 | 36100 ft | 440 kts | 330° |
| 2026-05-08 11:31 | 36.15706 | 43.86317 | 36100 ft | 441 kts | 330° |
| 2026-05-08 11:32 | 36.21323 | 43.83366 | 36107 ft | 441 kts | 330° |
| 2026-05-08 11:32 | 36.26978 | 43.80386 | 36094 ft | 440 kts | 330° |
| 2026-05-08 11:33 | 36.32637 | 43.77424 | 36088 ft | 441 kts | 330° |
| 2026-05-08 11:33 | 36.38279 | 43.74522 | 36103 ft | 441 kts | 331° |
| 2026-05-08 11:34 | 36.43946 | 43.71596 | 36084 ft | 440 kts | 331° |
| 2026-05-08 11:34 | 36.49605 | 43.68651 | 36070 ft | 440 kts | 331° |
| 2026-05-08 11:35 | 36.55228 | 43.65719 | 36078 ft | 439 kts | 331° |
| 2026-05-08 11:35 | 36.60867 | 43.62788 | 36076 ft | 438 kts | 331° |
| 2026-05-08 11:36 | 36.66500 | 43.59855 | 36086 ft | 438 kts | 331° |
| 2026-05-08 11:36 | 36.72129 | 43.56911 | 36076 ft | 438 kts | 331° |
| 2026-05-08 11:37 | 36.77715 | 43.53943 | 36071 ft | 438 kts | 330° |
| 2026-05-08 11:37 | 36.83286 | 43.50823 | 36092 ft | 437 kts | 329° |
| 2026-05-08 11:38 | 36.88831 | 43.47680 | 36095 ft | 436 kts | 329° |
| 2026-05-08 11:38 | 36.94343 | 43.44573 | 36094 ft | 436 kts | 329° |
| 2026-05-08 11:39 | 36.99883 | 43.41463 | 36104 ft | 436 kts | 329° |
| 2026-05-08 11:39 | 37.05387 | 43.38382 | 36111 ft | 436 kts | 330° |
| 2026-05-08 11:40 | 37.10925 | 43.35276 | 36110 ft | 435 kts | 329° |
| 2026-05-08 11:40 | 37.16456 | 43.32157 | 36137 ft | 435 kts | 329° |
| 2026-05-08 11:41 | 37.21954 | 43.29051 | 36128 ft | 435 kts | 329° |
| 2026-05-08 11:41 | 37.27484 | 43.25925 | 36132 ft | 435 kts | 330° |
| 2026-05-08 11:42 | 37.32764 | 43.22408 | 36144 ft | 425 kts | 317° |
| 2026-05-08 11:42 | 37.36817 | 43.17191 | 36143 ft | 412 kts | 299° |
| 2026-05-08 11:43 | 37.39591 | 43.10944 | 36124 ft | 408 kts | 294° |
| 2026-05-08 11:43 | 37.42255 | 43.04681 | 36138 ft | 408 kts | 294° |
| 2026-05-08 11:44 | 37.44946 | 42.98379 | 36136 ft | 408 kts | 294° |
| 2026-05-08 11:44 | 37.47624 | 42.92085 | 36136 ft | 407 kts | 294° |
| 2026-05-08 11:45 | 37.50270 | 42.85834 | 36148 ft | 407 kts | 295° |
| 2026-05-08 11:45 | 37.52940 | 42.79522 | 36134 ft | 407 kts | 295° |
| 2026-05-08 11:46 | 37.55593 | 42.73240 | 36126 ft | 407 kts | 295° |
| 2026-05-08 11:46 | 37.58250 | 42.66922 | 36115 ft | 408 kts | 295° |
| 2026-05-08 11:47 | 37.60897 | 42.60634 | 36135 ft | 408 kts | 295° |
| 2026-05-08 11:47 | 37.63563 | 42.54303 | 36134 ft | 408 kts | 295° |
| 2026-05-08 11:48 | 37.66225 | 42.47968 | 36116 ft | 408 kts | 295° |
| 2026-05-08 11:48 | 37.68864 | 42.41665 | 36138 ft | 408 kts | 295° |
| 2026-05-08 11:49 | 37.71524 | 42.35319 | 36135 ft | 408 kts | 295° |
| 2026-05-08 11:49 | 37.74159 | 42.29017 | 36130 ft | 407 kts | 295° |
| 2026-05-08 11:50 | 37.76518 | 42.23347 | 36122 ft | 408 kts | 295° |
| 2026-05-08 11:50 | 37.78983 | 42.17422 | 36136 ft | 408 kts | 295° |
| 2026-05-08 11:51 | 37.81608 | 42.11089 | 36132 ft | 408 kts | 295° |
| 2026-05-08 11:51 | 37.84245 | 42.04732 | 36133 ft | 408 kts | 295° |
| 2026-05-08 11:52 | 37.86866 | 41.98401 | 36131 ft | 408 kts | 295° |
| 2026-05-08 11:52 | 37.89495 | 41.92021 | 36130 ft | 407 kts | 295° |
| 2026-05-08 11:53 | 37.92562 | 41.86040 | 36127 ft | 411 kts | 308° |
| 2026-05-08 11:53 | 37.96373 | 41.80607 | 36116 ft | 411 kts | 308° |
| 2026-05-08 11:54 | 38.00162 | 41.75173 | 36123 ft | 411 kts | 308° |
| 2026-05-08 11:54 | 38.03933 | 41.69743 | 36129 ft | 411 kts | 308° |
| 2026-05-08 11:55 | 38.07716 | 41.64279 | 36133 ft | 411 kts | 308° |
| 2026-05-08 11:55 | 38.11478 | 41.58853 | 36125 ft | 411 kts | 309° |
| 2026-05-08 11:56 | 38.15266 | 41.53379 | 36139 ft | 412 kts | 309° |
| 2026-05-08 11:56 | 38.19019 | 41.47941 | 36134 ft | 412 kts | 308° |
| 2026-05-08 11:57 | 38.22813 | 41.42441 | 36143 ft | 412 kts | 309° |
| 2026-05-08 11:57 | 38.26594 | 41.36950 | 36140 ft | 412 kts | 309° |
| 2026-05-08 11:58 | 38.30352 | 41.31485 | 36144 ft | 412 kts | 309° |
| 2026-05-08 11:58 | 38.34117 | 41.25988 | 36146 ft | 412 kts | 309° |
| 2026-05-08 11:59 | 38.39767 | 41.17727 | 36144 ft | 412 kts | 309° |
| 2026-05-08 11:59 | 38.43513 | 41.12240 | 36147 ft | 412 kts | 309° |
| 2026-05-08 12:00 | 38.47670 | 41.07203 | 36148 ft | 416 kts | 323° |
| 2026-05-08 12:00 | 38.52739 | 41.03573 | 36148 ft | 417 kts | 329° |
| 2026-05-08 12:01 | 38.57827 | 41.00047 | 36160 ft | 418 kts | 329° |
| 2026-05-08 12:01 | 38.62941 | 40.96470 | 36157 ft | 418 kts | 328° |
| 2026-05-08 12:02 | 38.68047 | 40.92890 | 36170 ft | 418 kts | 329° |
| 2026-05-08 12:02 | 38.73132 | 40.89325 | 36171 ft | 418 kts | 329° |
| 2026-05-08 12:03 | 38.78244 | 40.85738 | 36179 ft | 418 kts | 329° |
| 2026-05-08 12:03 | 38.83311 | 40.82178 | 36186 ft | 417 kts | 329° |
| 2026-05-08 12:04 | 38.88417 | 40.78583 | 36191 ft | 417 kts | 329° |
| 2026-05-08 12:04 | 38.93507 | 40.74990 | 36198 ft | 417 kts | 329° |
| 2026-05-08 12:05 | 38.98589 | 40.71404 | 36192 ft | 416 kts | 329° |
| 2026-05-08 12:05 | 39.03630 | 40.67834 | 36192 ft | 416 kts | 329° |
| 2026-05-08 12:06 | 39.08711 | 40.64223 | 36195 ft | 416 kts | 329° |
| 2026-05-08 12:06 | 39.13787 | 40.60621 | 36209 ft | 416 kts | 329° |
| 2026-05-08 12:07 | 39.18872 | 40.56999 | 36203 ft | 417 kts | 329° |
| 2026-05-08 12:07 | 39.23937 | 40.53385 | 36209 ft | 417 kts | 329° |
| 2026-05-08 12:08 | 39.29021 | 40.49761 | 36206 ft | 417 kts | 329° |
| 2026-05-08 12:08 | 39.34111 | 40.46126 | 36202 ft | 417 kts | 329° |
| 2026-05-08 12:09 | 39.39157 | 40.42508 | 36206 ft | 417 kts | 329° |
| 2026-05-08 12:09 | 39.44252 | 40.38854 | 36151 ft | 418 kts | 329° |
| 2026-05-08 12:10 | 39.46801 | 40.37029 | 35899 ft | 417 kts | 329° |
| 2026-05-08 12:10 | 39.49309 | 40.35233 | 35658 ft | 414 kts | 329° |
| 2026-05-08 12:10 | 39.51814 | 40.33432 | 35264 ft | 409 kts | 329° |
| 2026-05-08 12:10 | 39.54298 | 40.31644 | 34769 ft | 406 kts | 330° |
| 2026-05-08 12:11 | 39.56771 | 40.29861 | 34264 ft | 403 kts | 330° |
| 2026-05-08 12:11 | 39.59220 | 40.28092 | 33736 ft | 400 kts | 330° |
| 2026-05-08 12:11 | 39.61607 | 40.26364 | 33261 ft | 396 kts | 330° |
| 2026-05-08 12:11 | 39.64000 | 40.24634 | 32781 ft | 391 kts | 330° |
| 2026-05-08 12:12 | 39.66372 | 40.22917 | 32317 ft | 387 kts | 331° |
| 2026-05-08 12:12 | 39.68712 | 40.21220 | 31860 ft | 383 kts | 331° |
| 2026-05-08 12:12 | 39.71007 | 40.19557 | 31424 ft | 380 kts | 332° |
| 2026-05-08 12:12 | 39.73306 | 40.17890 | 30966 ft | 377 kts | 332° |
| 2026-05-08 12:13 | 39.75585 | 40.16239 | 30533 ft | 373 kts | 332° |
| 2026-05-08 12:13 | 39.77846 | 40.14599 | 30074 ft | 370 kts | 332° |
| 2026-05-08 12:13 | 39.80078 | 40.12975 | 29648 ft | 365 kts | 332° |
| 2026-05-08 12:13 | 39.82282 | 40.11371 | 29231 ft | 361 kts | 332° |
| 2026-05-08 12:14 | 39.84457 | 40.09789 | 28836 ft | 356 kts | 332° |
| 2026-05-08 12:14 | 39.86603 | 40.08229 | 28447 ft | 351 kts | 332° |
| 2026-05-08 12:14 | 39.88729 | 40.06685 | 28074 ft | 346 kts | 332° |
| 2026-05-08 12:14 | 39.90822 | 40.05164 | 27673 ft | 342 kts | 332° |
| 2026-05-08 12:15 | 39.92886 | 40.03659 | 27290 ft | 338 kts | 332° |
| 2026-05-08 12:15 | 39.94898 | 40.02187 | 26904 ft | 333 kts | 332° |
| 2026-05-08 12:15 | 39.96913 | 40.00710 | 26514 ft | 330 kts | 332° |
| 2026-05-08 12:15 | 39.98906 | 39.99250 | 26125 ft | 326 kts | 332° |
| 2026-05-08 12:16 | 40.00885 | 39.97803 | 25728 ft | 324 kts | 332° |
| 2026-05-08 12:16 | 40.02824 | 39.96384 | 25343 ft | 321 kts | 332° |
| 2026-05-08 12:16 | 40.04766 | 39.94963 | 24946 ft | 319 kts | 332° |
| 2026-05-08 12:16 | 40.06701 | 39.93548 | 24539 ft | 318 kts | 332° |
| 2026-05-08 12:17 | 40.08629 | 39.92137 | 24133 ft | 317 kts | 332° |
| 2026-05-08 12:17 | 40.10553 | 39.90724 | 23719 ft | 316 kts | 332° |
| 2026-05-08 12:17 | 40.11820 | 39.89792 | 23409 ft | 315 kts | 332° |
| 2026-05-08 12:17 | 40.13723 | 39.88391 | 23001 ft | 313 kts | 331° |
| 2026-05-08 12:18 | 40.15615 | 39.86997 | 22591 ft | 310 kts | 332° |
| 2026-05-08 12:18 | 40.17488 | 39.85615 | 22215 ft | 307 kts | 332° |
| 2026-05-08 12:18 | 40.19343 | 39.84247 | 21835 ft | 305 kts | 332° |
| 2026-05-08 12:18 | 40.21191 | 39.82889 | 21455 ft | 303 kts | 332° |
| 2026-05-08 12:19 | 40.23029 | 39.81539 | 21077 ft | 302 kts | 332° |
| 2026-05-08 12:19 | 40.24831 | 39.80215 | 20709 ft | 300 kts | 331° |
| 2026-05-08 12:19 | 40.26653 | 39.78874 | 20336 ft | 299 kts | 331° |
| 2026-05-08 12:19 | 40.28463 | 39.77536 | 19965 ft | 298 kts | 331° |
| 2026-05-08 12:20 | 40.30268 | 39.76199 | 19613 ft | 297 kts | 331° |
| 2026-05-08 12:20 | 40.32071 | 39.74866 | 19240 ft | 297 kts | 331° |
| 2026-05-08 12:20 | 40.33872 | 39.73534 | 18873 ft | 297 kts | 332° |
| 2026-05-08 12:20 | 40.35652 | 39.72213 | 18514 ft | 297 kts | 332° |
| 2026-05-08 12:21 | 40.37454 | 39.70877 | 18099 ft | 297 kts | 332° |
| 2026-05-08 12:21 | 40.39252 | 39.69548 | 17736 ft | 296 kts | 333° |
| 2026-05-08 12:21 | 40.41145 | 39.68535 | 17373 ft | 294 kts | 345° |
| 2026-05-08 12:21 | 40.43159 | 39.68110 | 16997 ft | 293 kts | 357° |
| 2026-05-08 12:22 | 40.45192 | 39.68276 | 16641 ft | 293 kts | 7° |
| 2026-05-08 12:22 | 40.47191 | 39.68662 | 16277 ft | 293 kts | 7° |
| 2026-05-08 12:22 | 40.49203 | 39.69082 | 15912 ft | 293 kts | 11° |
| 2026-05-08 12:22 | 40.51138 | 39.69953 | 15560 ft | 294 kts | 24° |
| 2026-05-08 12:23 | 40.52948 | 39.71244 | 15203 ft | 295 kts | 27° |
| 2026-05-08 12:23 | 40.54747 | 39.72562 | 14845 ft | 295 kts | 26° |
| 2026-05-08 12:23 | 40.56546 | 39.73877 | 14489 ft | 296 kts | 27° |
| 2026-05-08 12:23 | 40.58332 | 39.75179 | 14136 ft | 298 kts | 26° |
| 2026-05-08 12:24 | 40.60151 | 39.76501 | 13747 ft | 298 kts | 26° |
| 2026-05-08 12:24 | 40.61964 | 39.77819 | 13376 ft | 297 kts | 26° |
| 2026-05-08 12:24 | 40.63768 | 39.79131 | 13014 ft | 296 kts | 27° |
| 2026-05-08 12:24 | 40.65575 | 39.80451 | 12585 ft | 296 kts | 26° |
| 2026-05-08 12:25 | 40.67336 | 39.81878 | 11982 ft | 300 kts | 35° |
| 2026-05-08 12:25 | 40.68842 | 39.83793 | 11484 ft | 301 kts | 49° |
| 2026-05-08 12:25 | 40.70121 | 39.85971 | 10898 ft | 298 kts | 50° |
| 2026-05-08 12:25 | 40.71374 | 39.88112 | 10190 ft | 299 kts | 50° |
| 2026-05-08 12:26 | 40.72643 | 39.90281 | 9509 ft | 297 kts | 51° |
| 2026-05-08 12:26 | 40.73896 | 39.92420 | 8784 ft | 294 kts | 50° |
| 2026-05-08 12:26 | 40.75133 | 39.94532 | 8140 ft | 288 kts | 50° |
| 2026-05-08 12:26 | 40.76353 | 39.96620 | 7603 ft | 283 kts | 50° |
| 2026-05-08 12:27 | 40.77536 | 39.98651 | 7710 ft | 270 kts | 51° |
| 2026-05-08 12:27 | 40.78658 | 40.00582 | 7457 ft | 260 kts | 50° |
| 2026-05-08 12:27 | 40.79722 | 40.02412 | 7283 ft | 245 kts | 51° |
| 2026-05-08 12:27 | 40.80733 | 40.04150 | 7055 ft | 234 kts | 50° |
| 2026-05-08 12:28 | 40.81703 | 40.05805 | 6761 ft | 225 kts | 47° |
| 2026-05-08 12:28 | 40.82780 | 40.07207 | 6384 ft | 212 kts | 34° |
| 2026-05-08 12:28 | 40.84024 | 40.08226 | 5899 ft | 209 kts | 22° |
| 2026-05-08 12:28 | 40.85381 | 40.08865 | 5458 ft | 205 kts | 11° |
| 2026-05-08 12:29 | 40.86728 | 40.09256 | 5135 ft | 195 kts | 10° |
| 2026-05-08 12:29 | 40.88037 | 40.09641 | 4655 ft | 192 kts | 10° |
| 2026-05-08 12:29 | 40.89351 | 40.09914 | 4213 ft | 189 kts | 355° |
| 2026-05-08 12:29 | 40.90585 | 40.09427 | 3801 ft | 184 kts | 326° |
| 2026-05-08 12:30 | 40.91466 | 40.08239 | 3700 ft | 185 kts | 300° |
| 2026-05-08 12:30 | 40.91878 | 40.06621 | 3702 ft | 187 kts | 282° |
| 2026-05-08 12:30 | 40.92140 | 40.05042 | 3679 ft | 164 kts | 283° |
| 2026-05-08 12:30 | 40.92370 | 40.03672 | 3707 ft | 147 kts | 283° |
| 2026-05-08 12:31 | 40.92587 | 40.02375 | 3702 ft | 143 kts | 283° |
| 2026-05-08 12:31 | 40.92809 | 40.01097 | 3703 ft | 142 kts | 285° |
| 2026-05-08 12:31 | 40.93098 | 39.99843 | 3653 ft | 143 kts | 289° |
| 2026-05-08 12:31 | 40.93436 | 39.98604 | 3427 ft | 143 kts | 291° |
| 2026-05-08 12:32 | 40.93796 | 39.97378 | 3202 ft | 143 kts | 292° |
| 2026-05-08 12:32 | 40.94168 | 39.96152 | 2979 ft | 144 kts | 292° |
| 2026-05-08 12:32 | 40.94547 | 39.94925 | 2763 ft | 144 kts | 292° |
| 2026-05-08 12:32 | 40.94928 | 39.93694 | 2532 ft | 144 kts | 292° |
| 2026-05-08 12:33 | 40.95305 | 39.92483 | 2312 ft | 145 kts | 292° |
| 2026-05-08 12:33 | 40.95688 | 39.91254 | 2094 ft | 145 kts | 292° |
| 2026-05-08 12:33 | 40.96073 | 39.90016 | 1855 ft | 146 kts | 293° |
| 2026-05-08 12:33 | 40.96462 | 39.88770 | 1628 ft | 146 kts | 292° |
| 2026-05-08 12:34 | 40.96847 | 39.87531 | 1395 ft | 146 kts | 293° |
| 2026-05-08 12:34 | 40.97232 | 39.86293 | 1172 ft | 144 kts | 293° |
| 2026-05-08 12:34 | 40.97614 | 39.85068 | 932 ft | 144 kts | 293° |
| 2026-05-08 12:34 | 40.97995 | 39.83843 | 693 ft | 144 kts | 293° |
| 2026-05-08 12:35 | 40.98373 | 39.82620 | 528 ft | 144 kts | 293° |
| 2026-05-08 12:35 | 40.98756 | 39.81397 | 327 ft | 144 kts | 294° |
| 2026-05-08 12:35 | 40.99139 | 39.80182 | 106 ft | 139 kts | 295° |
| 2026-05-08 12:35 | 40.99424 | 39.79249 | 106 ft | 69 kts | 291° |
| 2026-05-08 12:36 | 40.99507 | 39.78966 | 102 ft | 0 kts | 290° |
| 2026-05-08 12:36 | 40.99538 | 39.78873 | 102 ft | 22 kts | 289° |
| 2026-05-08 12:36 | 40.99564 | 39.78670 | 104 ft | 21 kts | 269° |
| 2026-05-08 12:36 | 40.99553 | 39.78521 | 113 ft | 11 kts | 261° |
| 2026-05-08 12:37 | 40.99544 | 39.78444 | 113 ft | 7 kts | 263° |
| 2026-05-08 12:37 | 40.99547 | 39.78383 | 112 ft | 6 kts | 280° |
| 2026-05-08 12:37 | 40.99533 | 39.78347 | 115 ft | 4 kts | 215° |
| 2026-05-08 12:37 | 40.99512 | 39.78333 | 115 ft | 3 kts | 201° |
| 2026-05-08 12:38 | 40.99499 | 39.78328 | 113 ft | 0 kts | 199° |
| 2026-05-08 12:38 | 40.99497 | 39.78327 | 113 ft | 1 kts | 200° |
| 2026-05-08 12:38 | 40.99495 | 39.78326 | 113 ft | 0 kts | 200° |
| 2026-05-08 12:38 | 40.99494 | 39.78325 | 113 ft | 0 kts | 200° |